sensor_id;sensor_type;location;lat;lon;timestamp;temperature;humidity
7516;DHT22;3799;47.184;8.538;2023-04-15T00:00:57;6.70;74.00
7516;DHT22;3799;47.184;8.538;2023-04-15T00:03:25;6.70;74.90
7516;DHT22;3799;47.184;8.538;2023-04-15T00:05:53;6.30;75.30
7516;DHT22;3799;47.184;8.538;2023-04-15T00:08:20;6.60;76.20
7516;DHT22;3799;47.184;8.538;2023-04-15T00:10:47;6.80;76.30
7516;DHT22;3799;47.184;8.538;2023-04-15T00:13:15;6.60;76.00
7516;DHT22;3799;47.184;8.538;2023-04-15T00:15:42;6.60;76.80
7516;DHT22;3799;47.184;8.538;2023-04-15T00:18:09;6.60;77.40
7516;DHT22;3799;47.184;8.538;2023-04-15T00:20:36;7.10;78.50
7516;DHT22;3799;47.184;8.538;2023-04-15T00:23:03;6.80;78.20
7516;DHT22;3799;47.184;8.538;2023-04-15T00:25:31;7.10;78.00
7516;DHT22;3799;47.184;8.538;2023-04-15T00:27:59;7.10;78.30
7516;DHT22;3799;47.184;8.538;2023-04-15T00:30:26;7.00;78.20
7516;DHT22;3799;47.184;8.538;2023-04-15T00:32:53;6.80;76.90
7516;DHT22;3799;47.184;8.538;2023-04-15T00:35:21;7.10;77.20
7516;DHT22;3799;47.184;8.538;2023-04-15T00:37:49;7.20;77.10
7516;DHT22;3799;47.184;8.538;2023-04-15T00:40:18;7.40;76.50
7516;DHT22;3799;47.184;8.538;2023-04-15T00:42:47;7.40;76.10
7516;DHT22;3799;47.184;8.538;2023-04-15T00:45:14;7.20;74.80
7516;DHT22;3799;47.184;8.538;2023-04-15T00:47:42;7.40;74.10
7516;DHT22;3799;47.184;8.538;2023-04-15T00:50:11;7.40;73.70
7516;DHT22;3799;47.184;8.538;2023-04-15T00:52:39;7.40;74.10
7516;DHT22;3799;47.184;8.538;2023-04-15T00:55:07;7.40;74.00
7516;DHT22;3799;47.184;8.538;2023-04-15T00:57:35;7.40;73.80
7516;DHT22;3799;47.184;8.538;2023-04-15T01:00:03;7.50;74.00
7516;DHT22;3799;47.184;8.538;2023-04-15T01:02:31;7.60;74.40
7516;DHT22;3799;47.184;8.538;2023-04-15T01:04:59;7.70;74.70
7516;DHT22;3799;47.184;8.538;2023-04-15T01:07:31;7.60;75.20
7516;DHT22;3799;47.184;8.538;2023-04-15T01:10:09;7.60;74.60
7516;DHT22;3799;47.184;8.538;2023-04-15T01:12:36;7.60;73.60
7516;DHT22;3799;47.184;8.538;2023-04-15T01:15:04;7.70;73.20
7516;DHT22;3799;47.184;8.538;2023-04-15T01:17:31;7.70;74.20
7516;DHT22;3799;47.184;8.538;2023-04-15T01:19:59;7.80;73.40
7516;DHT22;3799;47.184;8.538;2023-04-15T01:22:27;7.80;73.50
7516;DHT22;3799;47.184;8.538;2023-04-15T01:25:08;7.70;73.30
7516;DHT22;3799;47.184;8.538;2023-04-15T01:27:38;7.80;73.40
7516;DHT22;3799;47.184;8.538;2023-04-15T01:30:11;7.80;73.80
7516;DHT22;3799;47.184;8.538;2023-04-15T01:32:39;7.70;73.70
7516;DHT22;3799;47.184;8.538;2023-04-15T01:35:06;7.70;74.10
7516;DHT22;3799;47.184;8.538;2023-04-15T01:37:47;7.90;74.60
7516;DHT22;3799;47.184;8.538;2023-04-15T01:40:16;7.80;74.70
7516;DHT22;3799;47.184;8.538;2023-04-15T01:42:43;7.70;74.90
7516;DHT22;3799;47.184;8.538;2023-04-15T01:45:11;7.80;75.30
7516;DHT22;3799;47.184;8.538;2023-04-15T01:47:39;7.70;75.70
7516;DHT22;3799;47.184;8.538;2023-04-15T01:50:06;7.80;76.60
7516;DHT22;3799;47.184;8.538;2023-04-15T01:52:34;7.70;77.50
7516;DHT22;3799;47.184;8.538;2023-04-15T01:55:01;7.70;79.40
7516;DHT22;3799;47.184;8.538;2023-04-15T01:57:28;7.80;83.60
7516;DHT22;3799;47.184;8.538;2023-04-15T02:00:02;7.50;85.10
7516;DHT22;3799;47.184;8.538;2023-04-15T02:02:30;7.50;87.30
7516;DHT22;3799;47.184;8.538;2023-04-15T02:05:00;7.30;88.60
7516;DHT22;3799;47.184;8.538;2023-04-15T02:07:27;7.60;90.20
7516;DHT22;3799;47.184;8.538;2023-04-15T02:09:58;7.40;90.00
7516;DHT22;3799;47.184;8.538;2023-04-15T02:12:25;7.70;90.70
7516;DHT22;3799;47.184;8.538;2023-04-15T02:14:52;7.70;91.20
7516;DHT22;3799;47.184;8.538;2023-04-15T02:17:20;7.80;91.60
7516;DHT22;3799;47.184;8.538;2023-04-15T02:19:47;7.60;92.00
7516;DHT22;3799;47.184;8.538;2023-04-15T02:22:14;7.60;92.20
7516;DHT22;3799;47.184;8.538;2023-04-15T02:24:44;7.60;92.70
7516;DHT22;3799;47.184;8.538;2023-04-15T02:27:16;7.70;93.40
7516;DHT22;3799;47.184;8.538;2023-04-15T02:29:44;7.80;94.00
7516;DHT22;3799;47.184;8.538;2023-04-15T02:32:16;7.70;94.70
7516;DHT22;3799;47.184;8.538;2023-04-15T02:34:51;7.60;95.50
7516;DHT22;3799;47.184;8.538;2023-04-15T02:37:21;7.60;96.30
7516;DHT22;3799;47.184;8.538;2023-04-15T02:39:49;7.50;96.80
7516;DHT22;3799;47.184;8.538;2023-04-15T02:42:16;7.90;97.60
7516;DHT22;3799;47.184;8.538;2023-04-15T02:44:43;7.90;98.00
7516;DHT22;3799;47.184;8.538;2023-04-15T02:47:10;8.00;98.50
7516;DHT22;3799;47.184;8.538;2023-04-15T02:49:38;7.80;98.70
7516;DHT22;3799;47.184;8.538;2023-04-15T02:52:06;8.00;98.90
7516;DHT22;3799;47.184;8.538;2023-04-15T02:54:34;7.50;99.20
7516;DHT22;3799;47.184;8.538;2023-04-15T02:57:01;7.50;99.70
7516;DHT22;3799;47.184;8.538;2023-04-15T02:59:28;7.90;99.90
7516;DHT22;3799;47.184;8.538;2023-04-15T03:01:56;7.80;99.90
7516;DHT22;3799;47.184;8.538;2023-04-15T03:04:27;8.00;99.90
7516;DHT22;3799;47.184;8.538;2023-04-15T03:06:56;7.90;99.90
7516;DHT22;3799;47.184;8.538;2023-04-15T03:09:24;7.90;99.90
7516;DHT22;3799;47.184;8.538;2023-04-15T03:11:51;7.60;99.50
7516;DHT22;3799;47.184;8.538;2023-04-15T03:14:20;7.60;99.90
7516;DHT22;3799;47.184;8.538;2023-04-15T03:16:48;7.70;99.90
7516;DHT22;3799;47.184;8.538;2023-04-15T03:19:22;7.90;99.90
7516;DHT22;3799;47.184;8.538;2023-04-15T03:21:50;7.90;99.90
7516;DHT22;3799;47.184;8.538;2023-04-15T03:24:19;7.80;99.90
7516;DHT22;3799;47.184;8.538;2023-04-15T03:26:47;7.80;99.90
7516;DHT22;3799;47.184;8.538;2023-04-15T03:29:14;8.00;99.90
7516;DHT22;3799;47.184;8.538;2023-04-15T03:31:41;8.00;99.90
7516;DHT22;3799;47.184;8.538;2023-04-15T03:34:09;7.80;99.90
7516;DHT22;3799;47.184;8.538;2023-04-15T03:36:36;7.70;99.90
7516;DHT22;3799;47.184;8.538;2023-04-15T03:39:04;7.90;99.90
7516;DHT22;3799;47.184;8.538;2023-04-15T03:41:31;7.80;99.90
7516;DHT22;3799;47.184;8.538;2023-04-15T03:43:59;8.00;99.90
7516;DHT22;3799;47.184;8.538;2023-04-15T03:46:26;8.00;99.90
7516;DHT22;3799;47.184;8.538;2023-04-15T03:48:54;7.90;99.90
7516;DHT22;3799;47.184;8.538;2023-04-15T03:51:21;7.90;99.90
7516;DHT22;3799;47.184;8.538;2023-04-15T03:53:48;7.70;99.90
7516;DHT22;3799;47.184;8.538;2023-04-15T03:56:16;7.90;99.90
7516;DHT22;3799;47.184;8.538;2023-04-15T03:58:43;7.90;99.90
7516;DHT22;3799;47.184;8.538;2023-04-15T04:01:11;7.50;99.90
7516;DHT22;3799;47.184;8.538;2023-04-15T04:03:38;7.50;99.90
7516;DHT22;3799;47.184;8.538;2023-04-15T04:06:06;7.60;99.90
7516;DHT22;3799;47.184;8.538;2023-04-15T04:08:34;7.90;99.90
7516;DHT22;3799;47.184;8.538;2023-04-15T04:11:02;7.90;99.90
7516;DHT22;3799;47.184;8.538;2023-04-15T04:13:29;7.50;99.90
7516;DHT22;3799;47.184;8.538;2023-04-15T04:15:59;7.50;99.90
7516;DHT22;3799;47.184;8.538;2023-04-15T04:18:27;7.50;99.90
7516;DHT22;3799;47.184;8.538;2023-04-15T04:20:57;7.70;99.90
7516;DHT22;3799;47.184;8.538;2023-04-15T04:23:25;7.90;99.90
7516;DHT22;3799;47.184;8.538;2023-04-15T04:25:52;7.90;99.90
7516;DHT22;3799;47.184;8.538;2023-04-15T04:28:19;7.90;99.90
7516;DHT22;3799;47.184;8.538;2023-04-15T04:30:46;7.70;99.90
7516;DHT22;3799;47.184;8.538;2023-04-15T04:33:14;7.70;99.90
7516;DHT22;3799;47.184;8.538;2023-04-15T04:35:42;7.70;99.90
7516;DHT22;3799;47.184;8.538;2023-04-15T04:38:09;7.90;99.90
7516;DHT22;3799;47.184;8.538;2023-04-15T04:40:37;7.90;99.90
7516;DHT22;3799;47.184;8.538;2023-04-15T04:43:04;7.70;99.90
7516;DHT22;3799;47.184;8.538;2023-04-15T04:45:31;7.40;99.90
7516;DHT22;3799;47.184;8.538;2023-04-15T04:47:58;7.60;99.90
7516;DHT22;3799;47.184;8.538;2023-04-15T04:50:27;7.50;99.90
7516;DHT22;3799;47.184;8.538;2023-04-15T04:52:54;7.50;99.90
7516;DHT22;3799;47.184;8.538;2023-04-15T04:55:21;7.70;99.90
7516;DHT22;3799;47.184;8.538;2023-04-15T04:57:48;7.80;99.90
7516;DHT22;3799;47.184;8.538;2023-04-15T05:00:16;7.60;99.90
7516;DHT22;3799;47.184;8.538;2023-04-15T05:02:44;7.50;99.90
7516;DHT22;3799;47.184;8.538;2023-04-15T05:05:11;8.00;99.90
7516;DHT22;3799;47.184;8.538;2023-04-15T05:07:39;8.00;99.90
7516;DHT22;3799;47.184;8.538;2023-04-15T05:10:07;8.00;99.90
7516;DHT22;3799;47.184;8.538;2023-04-15T05:12:35;7.90;99.90
7516;DHT22;3799;47.184;8.538;2023-04-15T05:15:05;8.00;99.90
7516;DHT22;3799;47.184;8.538;2023-04-15T05:17:35;7.90;99.90
7516;DHT22;3799;47.184;8.538;2023-04-15T05:20:02;8.10;99.90
7516;DHT22;3799;47.184;8.538;2023-04-15T05:22:33;7.80;99.90
7516;DHT22;3799;47.184;8.538;2023-04-15T05:25:00;8.00;99.90
7516;DHT22;3799;47.184;8.538;2023-04-15T05:27:28;8.00;99.90
7516;DHT22;3799;47.184;8.538;2023-04-15T05:29:55;8.30;99.90
7516;DHT22;3799;47.184;8.538;2023-04-15T05:32:36;8.30;99.90
7516;DHT22;3799;47.184;8.538;2023-04-15T05:35:04;8.40;99.90
7516;DHT22;3799;47.184;8.538;2023-04-15T05:37:34;8.40;99.90
7516;DHT22;3799;47.184;8.538;2023-04-15T05:40:01;8.40;99.90
7516;DHT22;3799;47.184;8.538;2023-04-15T05:42:28;8.40;99.90
7516;DHT22;3799;47.184;8.538;2023-04-15T05:44:59;8.40;99.90
7516;DHT22;3799;47.184;8.538;2023-04-15T05:47:27;8.30;99.90
7516;DHT22;3799;47.184;8.538;2023-04-15T05:49:55;8.60;99.90
7516;DHT22;3799;47.184;8.538;2023-04-15T05:52:22;8.60;99.90
7516;DHT22;3799;47.184;8.538;2023-04-15T05:54:49;8.50;99.90
7516;DHT22;3799;47.184;8.538;2023-04-15T05:57:17;8.70;99.90
7516;DHT22;3799;47.184;8.538;2023-04-15T05:59:44;8.50;99.90
7516;DHT22;3799;47.184;8.538;2023-04-15T06:02:12;8.50;99.90
7516;DHT22;3799;47.184;8.538;2023-04-15T06:04:45;8.50;99.90
7516;DHT22;3799;47.184;8.538;2023-04-15T06:07:12;8.80;99.90
7516;DHT22;3799;47.184;8.538;2023-04-15T06:09:44;8.80;99.90
7516;DHT22;3799;47.184;8.538;2023-04-15T06:12:11;8.80;99.90
7516;DHT22;3799;47.184;8.538;2023-04-15T06:14:39;8.90;99.90
7516;DHT22;3799;47.184;8.538;2023-04-15T06:17:21;9.00;99.90
7516;DHT22;3799;47.184;8.538;2023-04-15T06:19:48;9.20;99.90
7516;DHT22;3799;47.184;8.538;2023-04-15T06:22:19;9.30;99.90
7516;DHT22;3799;47.184;8.538;2023-04-15T06:24:46;9.10;99.90
7516;DHT22;3799;47.184;8.538;2023-04-15T06:27:14;9.30;99.90
7516;DHT22;3799;47.184;8.538;2023-04-15T06:29:42;9.30;99.90
7516;DHT22;3799;47.184;8.538;2023-04-15T06:32:10;9.40;99.90
7516;DHT22;3799;47.184;8.538;2023-04-15T06:34:38;9.50;99.90
7516;DHT22;3799;47.184;8.538;2023-04-15T06:37:06;9.50;99.90
7516;DHT22;3799;47.184;8.538;2023-04-15T06:39:33;9.50;99.90
7516;DHT22;3799;47.184;8.538;2023-04-15T06:42:01;9.40;99.90
7516;DHT22;3799;47.184;8.538;2023-04-15T06:44:29;9.50;99.90
7516;DHT22;3799;47.184;8.538;2023-04-15T06:47:00;9.50;99.90
7516;DHT22;3799;47.184;8.538;2023-04-15T06:49:27;9.60;99.90
7516;DHT22;3799;47.184;8.538;2023-04-15T06:51:54;9.40;99.90
7516;DHT22;3799;47.184;8.538;2023-04-15T06:54:22;9.60;99.90
7516;DHT22;3799;47.184;8.538;2023-04-15T06:56:51;9.70;99.90
7516;DHT22;3799;47.184;8.538;2023-04-15T06:59:18;9.80;99.60
7516;DHT22;3799;47.184;8.538;2023-04-15T07:01:46;9.90;98.60
7516;DHT22;3799;47.184;8.538;2023-04-15T07:04:13;9.80;97.50
7516;DHT22;3799;47.184;8.538;2023-04-15T07:06:41;10.00;96.50
7516;DHT22;3799;47.184;8.538;2023-04-15T07:09:08;10.10;95.80
7516;DHT22;3799;47.184;8.538;2023-04-15T07:11:35;10.20;94.80
7516;DHT22;3799;47.184;8.538;2023-04-15T07:14:03;10.40;94.40
7516;DHT22;3799;47.184;8.538;2023-04-15T07:16:31;10.30;93.30
7516;DHT22;3799;47.184;8.538;2023-04-15T07:18:59;10.40;92.70
7516;DHT22;3799;47.184;8.538;2023-04-15T07:21:26;10.40;92.10
7516;DHT22;3799;47.184;8.538;2023-04-15T07:23:53;10.50;91.90
7516;DHT22;3799;47.184;8.538;2023-04-15T07:26:21;10.50;90.40
7516;DHT22;3799;47.184;8.538;2023-04-15T07:28:49;10.40;90.50
7516;DHT22;3799;47.184;8.538;2023-04-15T07:31:17;10.60;90.20
7516;DHT22;3799;47.184;8.538;2023-04-15T07:33:44;10.60;90.70
7516;DHT22;3799;47.184;8.538;2023-04-15T07:36:12;10.60;89.90
7516;DHT22;3799;47.184;8.538;2023-04-15T07:38:40;10.50;89.10
7516;DHT22;3799;47.184;8.538;2023-04-15T07:41:08;10.60;88.90
7516;DHT22;3799;47.184;8.538;2023-04-15T07:43:36;10.80;89.60
7516;DHT22;3799;47.184;8.538;2023-04-15T07:46:03;10.80;88.70
7516;DHT22;3799;47.184;8.538;2023-04-15T07:48:32;10.60;89.10
7516;DHT22;3799;47.184;8.538;2023-04-15T07:51:02;10.60;89.40
7516;DHT22;3799;47.184;8.538;2023-04-15T07:53:30;10.80;89.60
7516;DHT22;3799;47.184;8.538;2023-04-15T07:55:59;10.70;90.40
7516;DHT22;3799;47.184;8.538;2023-04-15T07:58:26;10.90;91.00
7516;DHT22;3799;47.184;8.538;2023-04-15T08:00:53;10.70;91.30
7516;DHT22;3799;47.184;8.538;2023-04-15T08:03:22;10.70;90.70
7516;DHT22;3799;47.184;8.538;2023-04-15T08:05:50;10.60;91.40
7516;DHT22;3799;47.184;8.538;2023-04-15T08:08:17;10.80;92.20
7516;DHT22;3799;47.184;8.538;2023-04-15T08:10:45;10.70;92.20
7516;DHT22;3799;47.184;8.538;2023-04-15T08:13:12;11.10;93.50
7516;DHT22;3799;47.184;8.538;2023-04-15T08:15:40;11.20;94.60
7516;DHT22;3799;47.184;8.538;2023-04-15T08:18:07;11.10;94.80
7516;DHT22;3799;47.184;8.538;2023-04-15T08:20:34;11.20;96.10
7516;DHT22;3799;47.184;8.538;2023-04-15T08:23:01;11.30;96.20
7516;DHT22;3799;47.184;8.538;2023-04-15T08:25:29;11.40;95.30
7516;DHT22;3799;47.184;8.538;2023-04-15T08:27:56;11.50;94.50
7516;DHT22;3799;47.184;8.538;2023-04-15T08:30:23;11.30;95.00
7516;DHT22;3799;47.184;8.538;2023-04-15T08:32:51;11.70;94.40
7516;DHT22;3799;47.184;8.538;2023-04-15T08:35:18;11.50;94.70
7516;DHT22;3799;47.184;8.538;2023-04-15T08:37:45;11.70;95.40
7516;DHT22;3799;47.184;8.538;2023-04-15T08:40:13;11.50;95.30
7516;DHT22;3799;47.184;8.538;2023-04-15T08:42:43;11.60;95.50
7516;DHT22;3799;47.184;8.538;2023-04-15T08:45:15;11.80;95.00
7516;DHT22;3799;47.184;8.538;2023-04-15T08:47:44;11.80;95.10
7516;DHT22;3799;47.184;8.538;2023-04-15T08:50:13;11.70;94.10
7516;DHT22;3799;47.184;8.538;2023-04-15T08:52:42;11.60;94.00
7516;DHT22;3799;47.184;8.538;2023-04-15T08:55:10;11.60;93.30
7516;DHT22;3799;47.184;8.538;2023-04-15T08:57:38;11.50;92.90
7516;DHT22;3799;47.184;8.538;2023-04-15T09:00:06;11.70;92.60
7516;DHT22;3799;47.184;8.538;2023-04-15T09:02:33;11.90;91.60
7516;DHT22;3799;47.184;8.538;2023-04-15T09:05:02;11.70;90.10
7516;DHT22;3799;47.184;8.538;2023-04-15T09:07:35;11.80;90.20
7516;DHT22;3799;47.184;8.538;2023-04-15T09:10:03;11.80;89.20
7516;DHT22;3799;47.184;8.538;2023-04-15T09:12:34;11.90;89.50
7516;DHT22;3799;47.184;8.538;2023-04-15T09:15:03;11.90;89.20
7516;DHT22;3799;47.184;8.538;2023-04-15T09:17:33;11.90;86.30
7516;DHT22;3799;47.184;8.538;2023-04-15T09:20:19;11.80;85.50
7516;DHT22;3799;47.184;8.538;2023-04-15T09:22:48;11.60;85.20
7516;DHT22;3799;47.184;8.538;2023-04-15T09:27:57;11.90;86.60
7516;DHT22;3799;47.184;8.538;2023-04-15T09:30:28;12.00;87.50
7516;DHT22;3799;47.184;8.538;2023-04-15T09:33:01;11.50;88.00
7516;DHT22;3799;47.184;8.538;2023-04-15T09:35:29;11.90;90.10
7516;DHT22;3799;47.184;8.538;2023-04-15T09:38:07;11.70;90.00
7516;DHT22;3799;47.184;8.538;2023-04-15T09:40:40;11.70;90.40
7516;DHT22;3799;47.184;8.538;2023-04-15T09:43:10;11.60;90.30
7516;DHT22;3799;47.184;8.538;2023-04-15T09:45:50;11.30;90.70
7516;DHT22;3799;47.184;8.538;2023-04-15T09:48:30;11.60;91.40
7516;DHT22;3799;47.184;8.538;2023-04-15T09:51:00;11.30;92.70
7516;DHT22;3799;47.184;8.538;2023-04-15T09:53:28;11.20;93.00
7516;DHT22;3799;47.184;8.538;2023-04-15T09:55:59;11.30;94.10
7516;DHT22;3799;47.184;8.538;2023-04-15T09:58:32;11.20;94.40
7516;DHT22;3799;47.184;8.538;2023-04-15T10:01:05;11.30;95.40
7516;DHT22;3799;47.184;8.538;2023-04-15T10:03:34;11.30;95.60
7516;DHT22;3799;47.184;8.538;2023-04-15T10:06:03;11.20;96.30
7516;DHT22;3799;47.184;8.538;2023-04-15T10:08:32;11.20;99.90
7516;DHT22;3799;47.184;8.538;2023-04-15T10:11:03;11.60;99.90
7516;DHT22;3799;47.184;8.538;2023-04-15T10:13:32;11.50;99.90
7516;DHT22;3799;47.184;8.538;2023-04-15T10:16:06;11.90;99.90
7516;DHT22;3799;47.184;8.538;2023-04-15T10:18:43;11.80;99.90
7516;DHT22;3799;47.184;8.538;2023-04-15T10:21:11;11.80;99.90
7516;DHT22;3799;47.184;8.538;2023-04-15T10:23:44;11.70;99.90
7516;DHT22;3799;47.184;8.538;2023-04-15T10:26:12;12.00;99.90
7516;DHT22;3799;47.184;8.538;2023-04-15T10:28:40;11.30;99.90
7516;DHT22;3799;47.184;8.538;2023-04-15T10:31:11;11.30;99.90
7516;DHT22;3799;47.184;8.538;2023-04-15T10:33:41;11.30;99.90
7516;DHT22;3799;47.184;8.538;2023-04-15T10:36:09;11.00;99.90
7516;DHT22;3799;47.184;8.538;2023-04-15T10:38:42;11.00;99.90
7516;DHT22;3799;47.184;8.538;2023-04-15T10:43:47;11.00;99.90
7516;DHT22;3799;47.184;8.538;2023-04-15T10:46:44;11.00;99.90
7516;DHT22;3799;47.184;8.538;2023-04-15T10:49:14;11.10;99.90
7516;DHT22;3799;47.184;8.538;2023-04-15T10:51:45;11.00;99.90
7516;DHT22;3799;47.184;8.538;2023-04-15T10:54:15;11.30;99.90
7516;DHT22;3799;47.184;8.538;2023-04-15T10:56:44;11.60;99.90
7516;DHT22;3799;47.184;8.538;2023-04-15T10:59:15;11.30;99.90
7516;DHT22;3799;47.184;8.538;2023-04-15T11:02:11;11.70;99.90
7516;DHT22;3799;47.184;8.538;2023-04-15T11:04:56;11.70;99.90
7516;DHT22;3799;47.184;8.538;2023-04-15T11:12:40;11.20;99.90
7516;DHT22;3799;47.184;8.538;2023-04-15T11:15:37;11.60;99.90
7516;DHT22;3799;47.184;8.538;2023-04-15T11:18:12;11.30;99.90
7516;DHT22;3799;47.184;8.538;2023-04-15T11:20:45;11.30;99.90
7516;DHT22;3799;47.184;8.538;2023-04-15T11:23:14;11.50;99.90
7516;DHT22;3799;47.184;8.538;2023-04-15T11:25:43;11.40;99.90
7516;DHT22;3799;47.184;8.538;2023-04-15T11:28:11;11.30;99.90
7516;DHT22;3799;47.184;8.538;2023-04-15T11:30:40;11.00;99.90
7516;DHT22;3799;47.184;8.538;2023-04-15T11:33:10;11.00;99.90
7516;DHT22;3799;47.184;8.538;2023-04-15T11:35:41;10.80;99.90
7516;DHT22;3799;47.184;8.538;2023-04-15T11:38:12;10.70;99.90
7516;DHT22;3799;47.184;8.538;2023-04-15T11:40:41;10.70;99.90
7516;DHT22;3799;47.184;8.538;2023-04-15T11:43:17;10.60;99.90
7516;DHT22;3799;47.184;8.538;2023-04-15T11:45:56;10.30;99.90
7516;DHT22;3799;47.184;8.538;2023-04-15T11:48:31;10.60;99.90
7516;DHT22;3799;47.184;8.538;2023-04-15T11:51:06;10.40;99.90
7516;DHT22;3799;47.184;8.538;2023-04-15T11:56:09;10.60;99.90
7516;DHT22;3799;47.184;8.538;2023-04-15T11:58:37;10.60;99.90
7516;DHT22;3799;47.184;8.538;2023-04-15T12:01:05;10.50;99.90
7516;DHT22;3799;47.184;8.538;2023-04-15T12:03:42;10.40;99.90
7516;DHT22;3799;47.184;8.538;2023-04-15T12:06:18;10.30;99.90
7516;DHT22;3799;47.184;8.538;2023-04-15T12:13:56;10.60;99.90
7516;DHT22;3799;47.184;8.538;2023-04-15T12:16:24;10.40;99.90
7516;DHT22;3799;47.184;8.538;2023-04-15T12:18:56;10.30;99.90
7516;DHT22;3799;47.184;8.538;2023-04-15T12:21:26;10.50;99.90
7516;DHT22;3799;47.184;8.538;2023-04-15T12:23:55;10.40;99.90
7516;DHT22;3799;47.184;8.538;2023-04-15T12:26:26;10.30;99.90
7516;DHT22;3799;47.184;8.538;2023-04-15T12:29:05;10.50;99.90
7516;DHT22;3799;47.184;8.538;2023-04-15T12:31:49;10.60;99.90
7516;DHT22;3799;47.184;8.538;2023-04-15T12:34:28;10.70;99.90
7516;DHT22;3799;47.184;8.538;2023-04-15T12:36:58;10.50;99.90
7516;DHT22;3799;47.184;8.538;2023-04-15T12:39:30;10.50;99.90
7516;DHT22;3799;47.184;8.538;2023-04-15T12:41:58;10.40;99.90
7516;DHT22;3799;47.184;8.538;2023-04-15T12:44:29;10.60;99.90
7516;DHT22;3799;47.184;8.538;2023-04-15T12:46:57;10.60;99.90
7516;DHT22;3799;47.184;8.538;2023-04-15T12:49:26;10.60;99.90
7516;DHT22;3799;47.184;8.538;2023-04-15T12:51:56;10.40;99.90
7516;DHT22;3799;47.184;8.538;2023-04-15T12:54:23;10.30;99.90
7516;DHT22;3799;47.184;8.538;2023-04-15T12:56:52;10.40;99.90
7516;DHT22;3799;47.184;8.538;2023-04-15T12:59:20;10.50;99.90
7516;DHT22;3799;47.184;8.538;2023-04-15T13:01:50;10.30;99.90
7516;DHT22;3799;47.184;8.538;2023-04-15T13:04:23;10.20;99.90
7516;DHT22;3799;47.184;8.538;2023-04-15T13:06:51;10.70;99.90
7516;DHT22;3799;47.184;8.538;2023-04-15T13:09:18;10.70;99.90
7516;DHT22;3799;47.184;8.538;2023-04-15T13:11:46;10.30;99.90
7516;DHT22;3799;47.184;8.538;2023-04-15T13:14:15;10.40;99.90
7516;DHT22;3799;47.184;8.538;2023-04-15T13:16:42;10.40;99.90
7516;DHT22;3799;47.184;8.538;2023-04-15T13:19:10;10.50;99.90
7516;DHT22;3799;47.184;8.538;2023-04-15T13:21:37;10.50;99.90
7516;DHT22;3799;47.184;8.538;2023-04-15T13:24:05;10.40;99.90
7516;DHT22;3799;47.184;8.538;2023-04-15T13:26:35;10.20;99.90
7516;DHT22;3799;47.184;8.538;2023-04-15T13:29:02;10.40;99.90
7516;DHT22;3799;47.184;8.538;2023-04-15T13:31:30;10.20;99.90
7516;DHT22;3799;47.184;8.538;2023-04-15T13:33:57;10.10;99.90
7516;DHT22;3799;47.184;8.538;2023-04-15T13:36:24;10.10;99.90
7516;DHT22;3799;47.184;8.538;2023-04-15T13:38:53;10.10;99.90
7516;DHT22;3799;47.184;8.538;2023-04-15T13:41:21;10.20;99.90
7516;DHT22;3799;47.184;8.538;2023-04-15T13:43:48;10.10;99.90
7516;DHT22;3799;47.184;8.538;2023-04-15T13:46:15;10.20;99.90
7516;DHT22;3799;47.184;8.538;2023-04-15T13:48:43;9.90;99.90
7516;DHT22;3799;47.184;8.538;2023-04-15T13:51:10;10.00;99.90
7516;DHT22;3799;47.184;8.538;2023-04-15T13:53:37;10.10;99.90
7516;DHT22;3799;47.184;8.538;2023-04-15T13:56:09;10.10;99.90
7516;DHT22;3799;47.184;8.538;2023-04-15T13:58:36;10.10;99.90
7516;DHT22;3799;47.184;8.538;2023-04-15T14:01:04;10.40;99.90
7516;DHT22;3799;47.184;8.538;2023-04-15T14:03:36;10.30;99.90
7516;DHT22;3799;47.184;8.538;2023-04-15T14:06:07;10.20;99.90
7516;DHT22;3799;47.184;8.538;2023-04-15T14:08:37;10.10;99.90
7516;DHT22;3799;47.184;8.538;2023-04-15T14:11:05;10.00;99.90
7516;DHT22;3799;47.184;8.538;2023-04-15T14:13:33;10.10;99.90
7516;DHT22;3799;47.184;8.538;2023-04-15T14:16:03;10.00;99.90
7516;DHT22;3799;47.184;8.538;2023-04-15T14:18:32;10.00;99.90
7516;DHT22;3799;47.184;8.538;2023-04-15T14:20:59;10.20;99.90
7516;DHT22;3799;47.184;8.538;2023-04-15T14:23:27;10.20;99.90
7516;DHT22;3799;47.184;8.538;2023-04-15T14:25:54;10.40;99.90
7516;DHT22;3799;47.184;8.538;2023-04-15T14:28:21;10.40;99.90
7516;DHT22;3799;47.184;8.538;2023-04-15T14:30:48;10.30;99.90
7516;DHT22;3799;47.184;8.538;2023-04-15T14:33:16;10.60;99.90
7516;DHT22;3799;47.184;8.538;2023-04-15T14:35:44;10.50;99.90
7516;DHT22;3799;47.184;8.538;2023-04-15T14:38:11;10.70;99.90
7516;DHT22;3799;47.184;8.538;2023-04-15T14:40:40;10.60;99.90
7516;DHT22;3799;47.184;8.538;2023-04-15T14:43:08;10.70;99.90
7516;DHT22;3799;47.184;8.538;2023-04-15T14:45:36;10.50;99.90
7516;DHT22;3799;47.184;8.538;2023-04-15T14:48:09;10.40;99.90
7516;DHT22;3799;47.184;8.538;2023-04-15T14:50:39;10.50;99.90
7516;DHT22;3799;47.184;8.538;2023-04-15T14:53:06;10.50;99.90
7516;DHT22;3799;47.184;8.538;2023-04-15T14:55:34;10.60;99.90
7516;DHT22;3799;47.184;8.538;2023-04-15T14:58:01;10.30;99.90
7516;DHT22;3799;47.184;8.538;2023-04-15T15:00:29;10.60;99.90
7516;DHT22;3799;47.184;8.538;2023-04-15T15:02:58;10.50;99.90
7516;DHT22;3799;47.184;8.538;2023-04-15T15:05:26;10.40;99.90
7516;DHT22;3799;47.184;8.538;2023-04-15T15:07:54;10.60;99.90
7516;DHT22;3799;47.184;8.538;2023-04-15T15:10:21;10.60;99.90
7516;DHT22;3799;47.184;8.538;2023-04-15T15:13:09;10.10;99.90
7516;DHT22;3799;47.184;8.538;2023-04-15T15:15:37;10.20;99.90
7516;DHT22;3799;47.184;8.538;2023-04-15T15:18:05;10.10;99.90
7516;DHT22;3799;47.184;8.538;2023-04-15T15:20:33;10.10;99.90
7516;DHT22;3799;47.184;8.538;2023-04-15T15:23:01;10.20;99.90
7516;DHT22;3799;47.184;8.538;2023-04-15T15:25:29;10.20;99.90
7516;DHT22;3799;47.184;8.538;2023-04-15T15:27:57;10.00;99.90
7516;DHT22;3799;47.184;8.538;2023-04-15T15:30:24;10.10;99.90
7516;DHT22;3799;47.184;8.538;2023-04-15T15:32:51;10.10;99.90
7516;DHT22;3799;47.184;8.538;2023-04-15T15:35:19;10.10;99.90
7516;DHT22;3799;47.184;8.538;2023-04-15T15:37:48;10.20;99.90
7516;DHT22;3799;47.184;8.538;2023-04-15T15:40:16;10.00;99.90
7516;DHT22;3799;47.184;8.538;2023-04-15T15:42:44;10.20;99.90
7516;DHT22;3799;47.184;8.538;2023-04-15T15:45:13;10.20;99.90
7516;DHT22;3799;47.184;8.538;2023-04-15T15:47:41;9.90;99.90
7516;DHT22;3799;47.184;8.538;2023-04-15T15:50:11;9.80;99.90
7516;DHT22;3799;47.184;8.538;2023-04-15T15:52:39;9.90;99.90
7516;DHT22;3799;47.184;8.538;2023-04-15T15:55:10;9.60;99.90
7516;DHT22;3799;47.184;8.538;2023-04-15T15:57:38;9.80;99.90
7516;DHT22;3799;47.184;8.538;2023-04-15T16:00:06;9.40;99.90
7516;DHT22;3799;47.184;8.538;2023-04-15T16:02:38;9.50;99.90
7516;DHT22;3799;47.184;8.538;2023-04-15T16:05:26;9.50;99.90
7516;DHT22;3799;47.184;8.538;2023-04-15T16:07:54;9.40;99.90
7516;DHT22;3799;47.184;8.538;2023-04-15T16:10:21;9.40;99.90
7516;DHT22;3799;47.184;8.538;2023-04-15T16:12:50;9.70;99.90
7516;DHT22;3799;47.184;8.538;2023-04-15T16:15:18;9.40;99.90
7516;DHT22;3799;47.184;8.538;2023-04-15T16:17:45;9.40;99.90
7516;DHT22;3799;47.184;8.538;2023-04-15T16:20:13;9.70;99.90
7516;DHT22;3799;47.184;8.538;2023-04-15T16:22:40;9.30;99.90
7516;DHT22;3799;47.184;8.538;2023-04-15T16:25:16;9.50;99.90
7516;DHT22;3799;47.184;8.538;2023-04-15T16:27:45;9.60;99.90
7516;DHT22;3799;47.184;8.538;2023-04-15T16:30:27;9.80;99.90
7516;DHT22;3799;47.184;8.538;2023-04-15T16:32:57;9.40;99.90
7516;DHT22;3799;47.184;8.538;2023-04-15T16:35:25;9.60;99.90
7516;DHT22;3799;47.184;8.538;2023-04-15T16:37:52;9.40;99.90
7516;DHT22;3799;47.184;8.538;2023-04-15T16:40:19;9.70;99.90